^^

Aktuelle METAR Wetterberichte, (Flughäfen)

 

EDLN - Monchengladbach, Germany
Entfernung: OSO 11km
aktuell: 22/07/2017 18:20
klar
klar
 Wind von WSW
Wind: WSW 15 km/h
Temperatur: 26°C
Taupunkt: 12°C
Luftfeuchte: 42%
Luftdruck: 1011 hPa
Zusammenfassung: klar
Sichtweite: grösser als 10 km
2017/07/22 16:20 EDLN 221620Z 24008KT 190V290 CAVOK 26/12 Q1011
EDDL - Duesseldorf, Germany
Entfernung: O 28km
aktuell: 22/07/2017 18:20
klar
klar
 Wind von SW
Wind: SW 20 km/h
Temperatur: 27°C
Taupunkt: 12°C
Luftfeuchte: 39%
Luftdruck: 1010 hPa
Zusammenfassung: klar
Sichtweite: grösser als 10 km
2017/07/22 16:20 EDDL 221620Z 23011KT CAVOK 27/12 Q1010 NOSIG
 
EDLV - Niederrhein, Germany
Entfernung: NNW 38km
aktuell: 22/07/2017 18:20
klar
klar
 Wind von W
Wind: W 20 km/h
Temperatur: 25°C
Taupunkt: 13°C
Luftfeuchte: 47%
Luftdruck: 1012 hPa
Zusammenfassung: klar
Sichtweite: grösser als 10 km
2017/07/22 16:20 EDLV 221620Z 27011KT CAVOK 25/13 Q1012
ETNN - Noervenich (gaf), Germany
Entfernung: SSO 56km
aktuell: 22/07/2017 18:20

 Wind von WSW
Wind: WSW 13 km/h
Temperatur: 26°C
Taupunkt: 11°C
Luftfeuchte: 39%
Luftdruck: 1011 hPa
Sichtweite: 8 km
2017/07/22 16:20 ETNN 221620Z AUTO 25007KT 8000 // ////// 26/11 Q1011 ///
 
EHBK - Zuid-Limburg/Bee, Netherlands
Entfernung: SW 59km
aktuell: 22/07/2017 18:25
Teilweise bewölkt
Teilweise bewölkt
 Wind von WSW
Wind: WSW 15 km/h
Temperatur: 24°C
Taupunkt: 13°C
Luftfeuchte: 50%
Luftdruck: 1011 hPa
Wolken: Teilweise bewölkt
Sichtweite: 10 km
2017/07/22 16:25 EHBK 221625Z AUTO 24008KT 200V280 9999 NSC 24/13 Q1011 NOSIG
EHVK - Volkel Rnlafb, Netherlands
Entfernung: NW 61km
aktuell: 22/07/2017 18:25
Geschlossene Wolkendecke
Geschlossene Wolkendecke
 Wind von WNW
Wind: WNW 6 km/h
Temperatur: 24°C
Taupunkt: 15°C
Luftfeuchte: 57%
Luftdruck: 1011 hPa
Wolken: Geschlossene Wolkendecke
Sichtweite: 10 km
Wolken im Detail: Einige Wolken 2804 m
Überwiegend bewölkt 3018 m
Geschlossene Wolkendecke 3048 m
2017/07/22 16:25 EHVK 221625Z AUTO 29003KT 260V320 9999 FEW092 BKN099 OVC100 24/15 Q1011 BLU
 
EBBL - Kleine-Brogel(Ba, Belgium
Entfernung: WSW 64km
aktuell: 22/07/2017 18:25
Überwiegend bewölkt
Überwiegend bewölkt
 Wind von SW
Wind: SW 17 km/h
Temperatur: 24°C
Taupunkt: 12°C
Luftfeuchte: 47%
Luftdruck: 1011 hPa
Wolken: Überwiegend bewölkt
Sichtweite: 10 km
Wolken im Detail: Einige Wolken 1585 m
Überwiegend bewölkt 2499 m
Überwiegend bewölkt 3353 m
2017/07/22 16:25 EBBL 221625Z AUTO 23009KT 9999 FEW052/// BKN082/// BKN110/// 24/12 Q1011 BLU
EHEH - Eindhoven Rnlafb, Netherlands
Entfernung: WNW 69km
aktuell: 22/07/2017 18:25
Geschlossene Wolkendecke
Geschlossene Wolkendecke
 Wind von SSW
Wind: SSW 7 km/h
Temperatur: 24°C
Taupunkt: 15°C
Luftfeuchte: 57%
Luftdruck: 1011 hPa
Wolken: Geschlossene Wolkendecke
Sichtweite: 10 km
Wolken im Detail: Einige Wolken 1402 m
Teilweise bewölkt 1676 m
Geschlossene Wolkendecke 3353 m
2017/07/22 16:25 EHEH 221625Z AUTO 20004KT 160V230 9999 FEW046 SCT055 OVC110 24/15 Q1011 BLU 20010KT CAVOK TEMPO 22012G22KT FEW020 SCT040CB
 
EDDK - Koeln/Bonn, Germany
Entfernung: SO 72km
aktuell: 22/07/2017 18:20
klar
klar
 Wind von SW
Wind: SW 19 km/h
Temperatur: 27°C
Hitzeindex: 27°C
Taupunkt: 13°C
Luftfeuchte: 42%
Luftdruck: 1011 hPa
Zusammenfassung: klar
Sichtweite: grösser als 10 km
2017/07/22 16:20 EDDK 221620Z 23010KT 210V270 CAVOK 27/13 Q1011 NOSIG
EDLW - Dortmund/Wickede, Germany
Entfernung: ONO 90km
aktuell: 22/07/2017 18:20
Einige Wolken
Einige Wolken
 Wind von SSO
Wind: SSO 15 km/h
Temperatur: 25°C
Taupunkt: 13°C
Luftfeuchte: 47%
Luftdruck: 1011 hPa
Wolken: Einige Wolken
Sichtweite: 10 km
Wolken im Detail: Einige Wolken 1494 m
2017/07/22 16:20 EDLW 221620Z 16008KT 120V210 9999 FEW049 25/13 Q1011
 
EBLB - Elsenborn (mil), Belgium
Entfernung: S 92km
aktuell: 22/07/2017 18:25
Überwiegend bewölkt
Überwiegend bewölkt
 Wind von SW
Wind: SW 9 km/h
Temperatur: 21°C
Taupunkt: 12°C
Luftfeuchte: 57%
Luftdruck: 1014 hPa
Wolken: Überwiegend bewölkt
Sichtweite: 10 km
Wolken im Detail: Überwiegend bewölkt 1554 m
2017/07/22 16:25 EBLB 221625Z AUTO 23005KT 9999 BKN051/// 21/12 Q1014 BLU
EHDL - Deelen Rnlafb, Netherlands
Entfernung: NNW 94km
aktuell: 22/07/2017 18:25
Überwiegend bewölkt
Überwiegend bewölkt
 Wind von WSW
Wind: WSW 11 km/h
Temperatur: 23°C
Taupunkt: 15°C
Luftfeuchte: 61%
Luftdruck: 1011 hPa
Wolken: Überwiegend bewölkt
Sichtweite: 10 km
Wolken im Detail: Einige Wolken 640 m
Teilweise bewölkt 2256 m
Überwiegend bewölkt 3018 m
2017/07/22 16:25 EHDL 221625Z AUTO 24006KT 180V280 9999 FEW021 SCT074 BKN099 23/15 Q1011 BLU
 
EBDT - Schaffen, Belgium
Entfernung: WSW 96km
aktuell: 22/07/2017 18:25
Geschlossene Wolkendecke
Geschlossene Wolkendecke
 Wind von SSW
Wind: SSW 15 km/h
Temperatur: 23°C
Taupunkt: 12°C
Luftfeuchte: 50%
Luftdruck: 1011 hPa
Wolken: Geschlossene Wolkendecke
Sichtweite: 10 km
Wolken im Detail: Einige Wolken 1524 m
Geschlossene Wolkendecke 2286 m
2017/07/22 16:25 EBDT 221625Z AUTO 21008KT 9999 FEW050/// OVC075/// 23/12 Q1011 BLU
EBLG - Bierset/Liege (c, Belgium
Entfernung: SW 97km
aktuell: 22/07/2017 18:20
klar
klar
 Wind von SW
Wind: SW 20 km/h
Temperatur: 22°C
Taupunkt: 12°C
Luftfeuchte: 53%
Luftdruck: 1012 hPa
Zusammenfassung: klar
Sichtweite: grösser als 10 km
2017/07/22 16:20 EBLG 221620Z 23011KT CAVOK 22/12 Q1012 NOSIG
 
EHGR - Gilze-Rijen Rnla, Netherlands
Entfernung: WNW 106km
aktuell: 22/07/2017 18:25
Leichter Sprühregen, Thunderstorm, Geschlossene Wolkendecke
Leichter Sprühregen, Thunderstorm, Geschlossene Wolkendecke
 Wind von SSW
Wind: SSW 7 km/h
Temperatur: 22°C
Taupunkt: 15°C
Luftfeuchte: 65%
Luftdruck: 1010 hPa
Zusammenfassung: Leichter Sprühregen, Thunderstorm
Wolken: Geschlossene Wolkendecke
Sichtweite: 10 km
Wolken im Detail: Einige Wolken 853 m
Überwiegend bewölkt 2743 m
Geschlossene Wolkendecke 3048 m
2017/07/22 16:25 EHGR 221625Z AUTO 20004KT 140V210 9999 -DZ TS FEW028CB BKN090 OVC100 22/15 Q1010 BLU
EBBE - Beauvechain (baf, Belgium
Entfernung: WSW 127km
aktuell: 22/07/2017 18:25
Überwiegend bewölkt
Überwiegend bewölkt
 Wind von SSW
Wind: SSW 22 km/h
Temperatur: 21°C
Taupunkt: 14°C
Luftfeuchte: 64%
Luftdruck: 1012 hPa
Wolken: Überwiegend bewölkt
Sichtweite: 10 km
Wolken im Detail: Einige Wolken 1189 m
Überwiegend bewölkt 1981 m
Überwiegend bewölkt 2591 m
2017/07/22 16:25 EBBE 221625Z AUTO 21012KT 9999 FEW039/// BKN065/// BKN085/// 21/14 Q1012 BLU
 
EDDG - Muenster/Osnabru, Germany
Entfernung: NO 130km
aktuell: 22/07/2017 18:20
klar
klar
 Wind von SSO
Wind: SSO 7 km/h
Temperatur: 27°C
Hitzeindex: 27°C
Taupunkt: 15°C
Luftfeuchte: 48%
Luftdruck: 1010 hPa
Zusammenfassung: klar
Sichtweite: grösser als 10 km
2017/07/22 16:20 EDDG 221620Z 15004KT 090V200 CAVOK 27/15 Q1010 NOSIG
ETHE - Rheine/Bentlage, Germany
Entfernung: NNO 130km
aktuell: 22/07/2017 18:20

 Wind von S
Wind: S 6 km/h
Temperatur: 27°C
Hitzeindex: 27°C
Taupunkt: 13°C
Luftfeuchte: 42%
Luftdruck: 1010 hPa
2017/07/22 16:20 ETHE 221620Z AUTO 18003KT //// // ////// 27/13 Q1010 ///
 
EBAW - Antwerp/Deurne, Belgium
Entfernung: W 133km
aktuell: 22/07/2017 18:20
Teilweise bewölkt
Teilweise bewölkt
 Wind von SSW
Wind: SSW 9 km/h
Temperatur: 19°C
Taupunkt: 17°C
Luftfeuchte: 88%
Luftdruck: 1011 hPa
Wolken: Teilweise bewölkt
Sichtweite: 10 km
Wolken im Detail: Einige Wolken 762 m
Teilweise bewölkt 1463 m
2017/07/22 16:20 EBAW 221620Z 20005KT 170V230 9999 FEW025 SCT048 19/17 Q1011 RESHRA NOSIG
ETSB - Buechel, Germany
Entfernung: SSO 134km
aktuell: 22/07/2017 18:20

 Wind von SW
Wind: SW 15 km/h
Temperatur: 24°C
Taupunkt: 12°C
Luftfeuchte: 47%
Luftdruck: 1013 hPa
Sichtweite: 10 km
2017/07/22 16:20 ETSB 221620Z AUTO 22008KT 9999 // ////// 24/12 Q1013 ///
 
EDGS - Siegerland, Germany
Entfernung: OSO 136km
aktuell: 22/07/2017 18:20
Einige Wolken
Einige Wolken
 Wind von S
Wind: S 17 km/h
Temperatur: 21°C
Taupunkt: 15°C
Luftfeuchte: 69%
Luftdruck: 1014 hPa
Wolken: Einige Wolken
Sichtweite: 10 km
Wolken im Detail: Einige Wolken 701 m
2017/07/22 16:20 EDGS 221620Z 18009KT 130V220 9999 FEW023 21/15 Q1014
EBBR - Brussels Nationa, Belgium
Entfernung: WSW 138km
aktuell: 22/07/2017 18:20
Überwiegend bewölkt
Überwiegend bewölkt
 Wind von SSW
Wind: SSW 11 km/h
Temperatur: 18°C
Taupunkt: 16°C
Luftfeuchte: 88%
Luftdruck: 1012 hPa
Wolken: Überwiegend bewölkt
Sichtweite: 10 km
Wolken im Detail: Einige Wolken 488 m
Einige Wolken 1189 m
Überwiegend bewölkt 1463 m
2017/07/22 16:20 EBBR 221620Z 21006KT 9999 FEW016 FEW039CB BKN048 18/16 Q1012 NOSIG
 
EHWO - Woensdrecht Rnla, Netherlands
Entfernung: W 144km
aktuell: 22/07/2017 18:25
Überwiegend bewölkt
Überwiegend bewölkt
 Wind von SSW
Wind: SSW 9 km/h
Temperatur: 20°C
Taupunkt: 16°C
Luftfeuchte: 78%
Luftdruck: 1011 hPa
Wolken: Überwiegend bewölkt
Sichtweite: 10 km
Wolken im Detail: Einige Wolken 457 m
Teilweise bewölkt 1494 m
Überwiegend bewölkt 1646 m
2017/07/22 16:25 EHWO 221625Z AUTO 20005KT 120V230 9999 FEW015CB SCT049 BKN054 20/16 Q1011 RETS BLU
ETAD - Spangdahlem (usa, Germany
Entfernung: S 147km
aktuell: 22/07/2017 17:58
Einige Wolken
Einige Wolken
 Wind von WSW
Wind: WSW 20 km/h
Temperatur: 24°C
Taupunkt: 12°C
Luftfeuchte: 47%
Luftdruck: 1013.2 hPa
Wolken: Einige Wolken
Sichtweite: 10 km
Wolken im Detail: Einige Wolken 2134 m
2017/07/22 15:58 ETAD 221558Z AUTO 24011KT 9999 FEW070 24/12 A2992 RMK AO2 SLP110 T02390116 TSNO $
 
EHRD - Rotterdam Airpor, Netherlands
Entfernung: WNW 152km
aktuell: 22/07/2017 18:25
Einige Wolken
Einige Wolken
 Wind von S
Wind: S 17 km/h
Temperatur: 22°C
Taupunkt: 16°C
Luftfeuchte: 69%
Luftdruck: 1010 hPa
Wolken: Einige Wolken
Sichtweite: 10 km
Wolken im Detail: Einige Wolken 1036 m
2017/07/22 16:25 EHRD 221625Z AUTO 18009KT 150V220 9999 FEW034 22/16 Q1010 TEMPO 6000 -SHRA SCT015CB
EHAM - Amsterdam/Schiph, Netherlands
Entfernung: NW 158km
aktuell: 22/07/2017 18:25
Einige Wolken
Einige Wolken
 Wind von OSO
Wind: OSO 7 km/h
Temperatur: 20°C
Taupunkt: 17°C
Luftfeuchte: 83%
Luftdruck: 1010 hPa
Wolken: Einige Wolken
Sichtweite: 10 km
Wolken im Detail: Einige Wolken 762 m
2017/07/22 16:25 EHAM 221625Z 11004KT 9999 FEW025 20/17 Q1010 TEMPO FM1700 4500 SHRA SCT025CB
 
EDLP - Paderborn/Lippst, Germany
Entfernung: ONO 160km
aktuell: 22/07/2017 18:20
Einige Wolken
Einige Wolken
 Wind von S
Wind: S 13 km/h
Temperatur: 25°C
Taupunkt: 15°C
Luftfeuchte: 54%
Luftdruck: 1012 hPa
Wolken: Einige Wolken
Sichtweite: 10 km
Wolken im Detail: Einige Wolken 1463 m
2017/07/22 16:20 EDLP 221620Z 18007KT 140V200 9999 FEW048 25/15 Q1012
EDFH - Hahn, Germany
Entfernung: SSO 161km
aktuell: 22/07/2017 18:20
klar
klar
 Wind von SSW
Wind: SSW 19 km/h
Temperatur: 23°C
Taupunkt: 13°C
Luftfeuchte: 53%
Luftdruck: 1014 hPa
Zusammenfassung: klar
Sichtweite: grösser als 10 km
2017/07/22 16:20 EDFH 221620Z 21010KT CAVOK 23/13 Q1014
 
EBCI - Charleroi/Gossel, Belgium
Entfernung: SW 163km
aktuell: 22/07/2017 18:20
Leichter Regen, Showers, Überwiegend bewölkt
Leichter Regen, Showers, Überwiegend bewölkt
 Wind von SSW
Wind: SSW 20 km/h
Temperatur: 19°C
Taupunkt: 15°C
Luftfeuchte: 78%
Luftdruck: 1012 hPa
Zusammenfassung: Leichter Regen, Showers
Wolken: Überwiegend bewölkt
Sichtweite: 10 km
Wolken im Detail: Teilweise bewölkt 610 m
Überwiegend bewölkt 1372 m
2017/07/22 16:20 EBCI 221620Z 21011KT 170V230 9999 -SHRA SCT020 BKN045 19/15 Q1012 TEMPO 22015G25KT
EBFS - Florennes (bel-A, Belgium
Entfernung: SW 170km
aktuell: 22/07/2017 18:25
Überwiegend bewölkt
Überwiegend bewölkt
 Wind von SSO
Wind: SSO 13 km/h
Temperatur: 18°C
Taupunkt: 16°C
Luftfeuchte: 88%
Luftdruck: 1013 hPa
Wolken: Überwiegend bewölkt
Sichtweite: 10 km
Wolken im Detail: Einige Wolken 518 m
Teilweise bewölkt 640 m
Überwiegend bewölkt 914 m
2017/07/22 16:25 EBFS 221625Z AUTO 16007KT 9999 FEW017/// SCT021/// BKN030/// 18/16 Q1013 WHT
 
ETWM - Meppen, Germany
Entfernung: NNO 172km
aktuell: 22/07/2017 18:20

 Wind von varies
Wind: varies 4 km/h
Temperatur: 25°C
Taupunkt: 15°C
Luftfeuchte: 54%
Luftdruck: 1011 hPa
Sichtweite: 9 km
2017/07/22 16:20 ETWM 221620Z AUTO VRB02KT 9000 // ////// 25/15 Q1011 ///